Time;durP1;ratioP1;P1;durP2;ratioP2;P2;SDS_P1;SDS_P2;PMS_P1;PMS_P2;Temp;Humidity;BMP_temperature;BMP_pressure;BME280_temperature;BME280_humidity;BME280_pressure;Samples;Min_cycle;Max_cycle;Signal;HPM_P1;HPM_P2
2023/05/27 00:01:10;;;;;;;8.38;5.05;;;20.00;35.70;;;;;;20521;6838;278970;-73
2023/05/27 00:03:35;;;;;;;6.30;5.28;;;20.00;35.90;;;;;;20518;6838;279048;-74
2023/05/27 00:06:01;;;;;;;7.65;4.57;;;20.00;35.70;;;;;;20742;6838;117865;-73
2023/05/27 00:08:26;;;;;;;7.57;4.90;;;19.60;36.00;;;;;;20536;6838;278605;-74
2023/05/27 00:10:52;;;;;;;7.13;4.63;;;19.50;36.30;;;;;;20733;6838;117697;-73
2023/05/27 00:13:18;;;;;;;7.80;5.03;;;19.20;36.50;;;;;;20522;6838;281717;-72
2023/05/27 00:15:43;;;;;;;8.40;5.03;;;19.20;36.50;;;;;;20505;6838;280536;-73
2023/05/27 00:18:09;;;;;;;6.15;4.70;;;19.30;36.20;;;;;;20522;6838;279575;-74
2023/05/27 00:20:34;;;;;;;11.17;5.17;;;19.40;36.20;;;;;;20729;6838;117387;-73
2023/05/27 00:23:00;;;;;;;7.37;4.90;;;19.20;36.50;;;;;;20522;6838;313619;-73
2023/05/27 00:25:27;;;;;;;7.47;5.00;;;19.10;36.60;;;;;;20502;6838;308333;-72
2023/05/27 00:27:54;;;;;;;7.60;5.27;;;19.10;36.30;;;;;;20742;6838;117393;-72
2023/05/27 00:30:19;;;;;;;8.02;4.80;;;18.90;36.50;;;;;;20523;6838;337637;-72
2023/05/27 00:32:45;;;;;;;7.78;4.97;;;18.90;36.80;;;;;;20528;6838;337589;-73
2023/05/27 00:35:11;;;;;;;8.13;4.62;;;18.80;37.10;;;;;;20741;6838;117271;-72
2023/05/27 00:37:38;;;;;;;8.97;5.27;;;18.70;36.90;;;;;;20709;6838;117842;-73
2023/05/27 00:40:05;;;;;;;7.03;4.93;;;18.40;37.50;;;;;;20522;6838;309233;-74
2023/05/27 00:42:30;;;;;;;6.87;4.33;;;18.40;37.80;;;;;;20710;6837;117884;-73
2023/05/27 00:44:56;;;;;;;7.20;4.40;;;18.30;38.00;;;;;;20739;6837;117217;-73
2023/05/27 00:47:23;;;;;;;7.77;4.87;;;18.10;38.10;;;;;;20524;6838;308489;-74
2023/05/27 00:49:48;;;;;;;6.83;4.93;;;18.10;38.00;;;;;;20546;6838;118044;-74
2023/05/27 00:52:15;;;;;;;8.20;5.03;;;17.80;38.40;;;;;;20743;6838;117673;-74
2023/05/27 00:54:40;;;;;;;6.25;4.80;;;17.80;38.40;;;;;;20523;6838;349972;-72
2023/05/27 00:57:06;;;;;;;6.87;5.20;;;17.90;38.30;;;;;;20523;6838;282250;-72
2023/05/27 00:59:33;;;;;;;6.40;3.90;;;18.20;38.00;;;;;;20710;6838;121089;-74
2023/05/27 01:01:58;;;;;;;7.17;4.70;;;18.10;38.00;;;;;;20516;6838;302890;-73
2023/05/27 01:04:24;;;;;;;6.37;4.73;;;18.20;38.30;;;;;;20726;6838;117704;-73
2023/05/27 01:07:04;;;;;;;6.93;4.43;;;17.70;38.80;;;;;;20719;6838;117237;-73
2023/05/27 01:09:49;;;;;;;6.73;3.93;;;17.70;38.70;;;;;;20690;6838;120973;-72
2023/05/27 01:12:32;;;;;;;10.07;4.53;;;17.50;39.10;;;;;;20717;6838;121320;-73
2023/05/27 01:14:57;;;;;;;8.90;4.03;;;17.20;39.40;;;;;;20724;6838;117725;-72
2023/05/27 01:17:22;;;;;;;7.22;4.80;;;17.00;39.80;;;;;;20528;6838;308107;-72
2023/05/27 01:19:48;;;;;;;6.75;4.05;;;17.30;39.70;;;;;;20732;6838;120738;-72
2023/05/27 01:22:14;;;;;;;7.93;4.95;;;17.30;39.60;;;;;;20523;6838;279405;-72
2023/05/27 01:24:41;;;;;;;8.97;4.80;;;17.50;39.60;;;;;;20720;6838;117738;-72
2023/05/27 01:27:05;;;;;;;6.80;4.87;;;17.50;39.50;;;;;;20513;6838;313011;-73
2023/05/27 01:29:31;;;;;;;8.20;4.95;;;17.60;39.50;;;;;;20480;6838;308582;-72
2023/05/27 01:32:01;;;;;;;7.07;4.70;;;17.90;39.10;;;;;;20515;6838;279443;-71
2023/05/27 01:34:30;;;;;;;10.07;5.17;;;18.10;38.70;;;;;;20479;6838;279176;-72
2023/05/27 01:36:55;;;;;;;7.43;4.33;;;18.30;38.40;;;;;;20706;6838;117870;-72
2023/05/27 01:39:21;;;;;;;7.53;4.13;;;18.00;38.50;;;;;;20706;6838;117692;-72
2023/05/27 01:41:47;;;;;;;9.18;4.95;;;17.70;39.00;;;;;;20502;6838;307650;-73
2023/05/27 01:44:12;;;;;;;7.97;4.90;;;17.70;39.30;;;;;;20729;6838;119982;-72
2023/05/27 01:46:39;;;;;;;6.50;4.30;;;17.50;39.30;;;;;;20730;6838;119895;-72
2023/05/27 01:49:04;;;;;;;9.13;5.03;;;17.20;39.50;;;;;;20512;6838;278066;-72
2023/05/27 01:51:30;;;;;;;6.80;4.80;;;17.30;39.60;;;;;;20498;6838;308950;-72
2023/05/27 01:53:55;;;;;;;7.67;4.37;;;17.60;39.60;;;;;;20733;6838;120093;-73
2023/05/27 01:56:44;;;;;;;8.15;4.70;;;17.50;39.70;;;;;;20525;6837;283358;-72
2023/05/27 01:59:09;;;;;;;6.90;4.73;;;17.50;39.90;;;;;;20508;6838;283602;-72
2023/05/27 02:01:36;;;;;;;12.40;4.80;;;17.60;40.20;;;;;;20708;6838;119448;-73
2023/05/27 02:04:01;;;;;;;8.87;4.20;;;17.50;39.40;;;;;;20732;6838;117575;-72
2023/05/27 02:06:27;;;;;;;10.17;4.40;;;17.30;40.00;;;;;;20733;6838;119741;-73
2023/05/27 02:08:52;;;;;;;7.62;5.10;;;17.00;40.60;;;;;;20501;6838;283847;-73
2023/05/27 02:11:18;;;;;;;9.02;5.55;;;17.10;41.00;;;;;;20524;6838;280010;-72
2023/05/27 02:13:43;;;;;;;10.30;5.07;;;17.40;40.00;;;;;;20491;6838;341820;-74
2023/05/27 02:16:12;;;;;;;8.57;4.90;;;17.80;39.40;;;;;;20527;6838;278713;-72
2023/05/27 02:18:35;;;;;;;8.30;4.37;;;17.80;39.40;;;;;;20724;6838;119488;-72
2023/05/27 02:21:05;;;;;;;9.47;4.63;;;17.20;40.10;;;;;;20729;6838;119967;-72
2023/05/27 02:23:28;;;;;;;8.17;4.90;;;17.20;40.00;;;;;;20487;6838;308190;-72
2023/05/27 02:25:54;;;;;;;8.87;4.63;;;17.30;40.00;;;;;;20731;6838;120079;-72
2023/05/27 02:28:19;;;;;;;10.80;4.80;;;17.20;40.10;;;;;;20736;6838;121405;-72
2023/05/27 02:30:45;;;;;;;7.53;4.72;;;16.90;40.30;;;;;;20518;6838;308618;-74
2023/05/27 02:33:11;;;;;;;6.73;4.87;;;17.30;40.00;;;;;;20515;6838;338173;-73
2023/05/27 02:35:37;;;;;;;6.10;4.37;;;17.30;40.00;;;;;;20716;6838;120447;-72
2023/05/27 02:38:03;;;;;;;10.30;5.00;;;17.30;39.90;;;;;;20523;6838;278864;-74
2023/05/27 02:40:29;;;;;;;7.90;4.85;;;17.20;40.50;;;;;;20527;6838;341687;-72
2023/05/27 02:42:58;;;;;;;7.80;4.60;;;17.40;39.80;;;;;;20732;6838;117728;-72
2023/05/27 02:45:23;;;;;;;9.73;5.00;;;17.20;40.10;;;;;;20500;6838;316787;-72
2023/05/27 02:47:49;;;;;;;6.57;4.65;;;17.30;39.90;;;;;;20514;6838;312542;-72
2023/05/27 02:50:14;;;;;;;8.52;5.22;;;17.50;40.10;;;;;;20515;6838;337206;-73
2023/05/27 02:52:40;;;;;;;7.53;4.73;;;17.70;39.70;;;;;;20728;6838;119851;-74
2023/05/27 02:55:07;;;;;;;6.78;4.12;;;17.10;40.60;;;;;;20714;6838;117258;-74
2023/05/27 02:57:32;;;;;;;7.40;4.30;;;17.10;40.60;;;;;;20710;6838;119307;-72
2023/05/27 02:59:59;;;;;;;8.65;4.70;;;16.80;41.10;;;;;;20519;6838;280500;-72
2023/05/27 03:02:25;;;;;;;7.10;4.17;;;17.00;41.60;;;;;;20729;6838;119810;-72
2023/05/27 03:04:51;;;;;;;8.10;4.53;;;16.90;41.50;;;;;;20734;6838;119918;-74
2023/05/27 03:07:17;;;;;;;6.87;4.20;;;16.50;42.00;;;;;;20727;6837;117570;-73
2023/05/27 03:09:44;;;;;;;7.77;5.07;;;16.50;42.00;;;;;;20502;6838;445656;-72
2023/05/27 03:12:09;;;;;;;9.57;4.72;;;16.70;41.70;;;;;;20519;6838;335677;-73
2023/05/27 03:14:35;;;;;;;9.63;4.97;;;17.00;41.30;;;;;;20521;6838;308218;-74
2023/05/27 03:17:00;;;;;;;7.87;4.37;;;17.30;40.80;;;;;;20729;6838;119397;-74
2023/05/27 03:19:27;;;;;;;6.10;4.40;;;16.80;41.30;;;;;;20712;6838;144149;-73
2023/05/27 03:21:52;;;;;;;9.63;5.40;;;16.90;41.40;;;;;;20518;6838;320811;-73
2023/05/27 03:24:18;;;;;;;7.43;4.83;;;17.00;41.20;;;;;;20731;6838;119367;-72
2023/05/27 03:26:44;;;;;;;9.40;5.23;;;16.90;41.40;;;;;;20506;6838;292149;-74
2023/05/27 03:29:09;;;;;;;8.90;4.60;;;17.00;41.10;;;;;;20728;6838;117271;-72
2023/05/27 03:31:35;;;;;;;11.13;9.77;;;16.60;41.70;;;;;;20712;6838;117795;-72
2023/05/27 03:34:01;;;;;;;10.43;4.90;;;16.60;41.70;;;;;;20728;6838;120165;-73
2023/05/27 03:36:26;;;;;;;7.40;4.97;;;16.40;42.30;;;;;;20478;6838;307679;-72
2023/05/27 03:38:52;;;;;;;7.70;4.90;;;16.60;42.00;;;;;;20506;6838;278566;-77
2023/05/27 03:41:18;;;;;;;7.55;5.05;;;16.90;41.20;;;;;;20525;6838;313077;-71
2023/05/27 03:43:43;;;;;;;7.72;4.90;;;17.20;40.80;;;;;;20355;6838;288496;-72
2023/05/27 03:46:10;;;;;;;7.23;4.00;;;17.30;40.70;;;;;;20669;6838;123072;-72
2023/05/27 03:48:36;;;;;;;10.03;4.63;;;17.10;40.90;;;;;;20700;6838;117735;-71
2023/05/27 03:51:01;;;;;;;7.47;4.60;;;16.80;41.50;;;;;;20716;6838;119587;-72
2023/05/27 03:53:27;;;;;;;9.43;4.82;;;16.50;42.00;;;;;;20468;6838;313087;-72
2023/05/27 03:55:52;;;;;;;6.50;4.53;;;16.70;42.50;;;;;;20713;6838;123730;-72
2023/05/27 03:58:19;;;;;;;8.20;4.73;;;16.50;42.60;;;;;;20706;6838;117242;-72
2023/05/27 04:00:47;;;;;;;11.03;5.40;;;16.40;42.50;;;;;;20703;6838;119439;-72
2023/05/27 04:03:13;;;;;;;10.53;5.30;;;16.30;42.80;;;;;;20500;6838;312613;-72
2023/05/27 04:05:39;;;;;;;10.23;5.30;;;16.80;41.90;;;;;;20498;6838;312593;-69
2023/05/27 04:08:05;;;;;;;9.23;5.43;;;16.80;41.90;;;;;;20512;6838;297360;-72
2023/05/27 04:10:30;;;;;;;8.57;5.60;;;17.10;41.50;;;;;;20725;6838;117284;-74
2023/05/27 04:12:56;;;;;;;10.63;5.50;;;17.00;41.80;;;;;;20526;6838;279296;-75
2023/05/27 04:15:22;;;;;;;8.23;4.65;;;16.90;42.00;;;;;;20733;6838;117494;-72
2023/05/27 04:17:47;;;;;;;10.43;4.00;;;16.90;42.00;;;;;;20714;6836;117212;-72
2023/05/27 04:20:13;;;;;;;9.83;4.30;;;16.70;42.60;;;;;;20735;6838;119550;-72
2023/05/27 04:22:42;;;;;;;9.68;5.47;;;16.50;43.30;;;;;;20518;6838;278996;-72
2023/05/27 04:25:08;;;;;;;5.63;4.00;;;16.70;42.60;;;;;;20727;6838;119947;-73
2023/05/27 04:27:33;;;;;;;8.00;5.10;;;16.70;42.60;;;;;;20492;6838;308976;-73
2023/05/27 04:29:59;;;;;;;8.80;4.53;;;16.90;42.30;;;;;;20731;6838;117213;-72
2023/05/27 04:32:32;;;;;;;6.13;4.07;;;16.90;42.60;;;;;;20723;6838;117153;-73
2023/05/27 04:34:52;;;;;;;9.67;4.33;;;16.70;42.90;;;;;;20691;6838;117248;-73
2023/05/27 04:37:19;;;;;;;6.70;4.10;;;16.60;43.10;;;;;;20730;6838;121514;-73
2023/05/27 04:39:45;;;;;;;9.07;5.30;;;16.50;43.30;;;;;;20487;6838;337701;-72
2023/05/27 04:42:08;;;;;;;8.10;4.43;;;16.70;42.70;;;;;;20713;6838;118155;-73
2023/05/27 04:44:35;;;;;;;8.50;5.10;;;16.80;42.70;;;;;;20507;6838;308091;-72
2023/05/27 04:47:00;;;;;;;10.00;5.17;;;17.40;42.00;;;;;;20477;6838;309021;-73
2023/05/27 04:49:26;;;;;;;9.83;4.40;;;17.40;41.90;;;;;;20657;6838;121541;-73
2023/05/27 04:51:52;;;;;;;8.27;4.90;;;17.40;42.00;;;;;;20477;6838;278993;-73
2023/05/27 04:54:18;;;;;;;12.53;4.40;;;17.60;41.50;;;;;;20675;6838;118402;-73
2023/05/27 04:56:43;;;;;;;8.52;4.43;;;17.50;41.80;;;;;;20684;6838;117833;-73
2023/05/27 04:59:16;;;;;;;10.83;4.33;;;17.30;42.10;;;;;;20676;6838;117696;-73
2023/05/27 05:01:59;;;;;;;10.05;5.43;;;17.20;42.50;;;;;;20385;6838;308143;-73
2023/05/27 05:04:13;;;;;;;9.20;5.18;;;17.40;41.80;;;;;;20350;6838;346322;-73
2023/05/27 05:06:38;;;;;;;12.37;5.17;;;17.80;41.30;;;;;;20635;6838;119288;-72
2023/05/27 05:09:04;;;;;;;7.87;4.83;;;17.60;42.50;;;;;;20635;6838;117493;-72
2023/05/27 05:11:30;;;;;;;7.93;4.85;;;17.50;41.60;;;;;;20414;6838;337707;-73
2023/05/27 05:13:55;;;;;;;7.82;5.32;;;17.70;41.50;;;;;;20400;6838;312531;-72
2023/05/27 05:16:21;;;;;;;9.20;4.83;;;18.10;41.10;;;;;;20608;6838;121685;-72
2023/05/27 05:18:46;;;;;;;7.77;4.80;;;18.00;41.20;;;;;;20425;6838;315182;-71
2023/05/27 05:21:13;;;;;;;6.85;3.83;;;18.10;40.90;;;;;;20627;6838;121462;-72
2023/05/27 05:23:39;;;;;;;9.10;4.87;;;18.10;40.80;;;;;;20412;6838;312366;-74
2023/05/27 05:26:06;;;;;;;9.23;4.87;;;18.20;40.50;;;;;;20628;6838;117867;-72
2023/05/27 05:28:30;;;;;;;6.80;5.05;;;18.10;40.70;;;;;;20654;6838;119293;-73
2023/05/27 05:30:55;;;;;;;11.20;5.40;;;17.90;40.90;;;;;;20473;6837;279115;-71
2023/05/27 05:33:21;;;;;;;10.87;4.90;;;18.00;40.80;;;;;;20723;6838;117918;-73
2023/05/27 05:35:46;;;;;;;11.43;5.53;;;18.00;41.00;;;;;;20500;6838;318690;-72
2023/05/27 05:38:12;;;;;;;8.47;4.70;;;18.20;40.20;;;;;;20728;6838;117333;-71
2023/05/27 05:40:37;;;;;;;6.97;4.68;;;18.10;40.50;;;;;;20515;6838;295497;-72
2023/05/27 05:43:03;;;;;;;13.73;4.97;;;18.30;42.30;;;;;;20518;6838;278918;-71
2023/05/27 05:45:28;;;;;;;8.95;5.20;;;18.60;40.70;;;;;;20491;6838;304743;-73
2023/05/27 05:47:54;;;;;;;10.20;4.80;;;18.80;39.60;;;;;;20734;6838;117382;-72
2023/05/27 05:50:20;;;;;;;7.82;5.05;;;18.70;40.00;;;;;;20519;6838;279015;-71
2023/05/27 05:52:46;;;;;;;9.30;5.40;;;19.10;40.10;;;;;;20514;6838;308452;-71
2023/05/27 05:55:11;;;;;;;11.82;5.57;;;19.10;40.10;;;;;;20516;6838;337693;-72
2023/05/27 05:57:37;;;;;;;10.38;5.07;;;19.40;39.20;;;;;;20706;6838;118027;-73
2023/05/27 06:00:03;;;;;;;8.57;4.68;;;19.20;39.40;;;;;;20735;6838;118603;-71
2023/05/27 06:02:28;;;;;;;9.37;5.47;;;18.90;39.70;;;;;;20529;6838;286097;-71
2023/05/27 06:04:54;;;;;;;8.07;4.60;;;19.00;39.70;;;;;;20735;6838;120269;-71
2023/05/27 06:07:20;;;;;;;9.27;5.40;;;19.00;39.70;;;;;;20527;6838;286220;-73
2023/05/27 06:09:45;;;;;;;7.00;4.97;;;19.10;39.70;;;;;;20705;6838;118250;-71
